Time;durP1;ratioP1;P1;durP2;ratioP2;P2;SDS_P1;SDS_P2;PMS_P1;PMS_P2;Temp;Humidity;BMP_temperature;BMP_pressure;BME280_temperature;BME280_humidity;BME280_pressure;Samples;Min_cycle;Max_cycle;Signal;HPM_P1;HPM_P2
2024/01/01 00:02:13;;;;;;;36.97;19.55;;;;;;;;;;5017597;28;20585;-75
2024/01/01 00:04:38;;;;;;;73.38;39.25;;;;;;;;;;5024359;28;20682;-75
2024/01/01 00:07:04;;;;;;;41.55;20.70;;;;;;;;;;5026569;28;20202;-75
2024/01/01 00:09:29;;;;;;;40.90;17.60;;;;;;;;;;5027465;28;20652;-76
2024/01/01 00:11:55;;;;;;;50.55;23.33;;;;;;;;;;5026505;28;20190;-75
2024/01/01 00:14:20;;;;;;;33.90;18.15;;;;;;;;;;5023520;28;20190;-75
2024/01/01 00:16:46;;;;;;;33.70;17.73;;;;;;;;;;5005601;28;20614;-75
2024/01/01 00:19:12;;;;;;;48.88;23.52;;;;;;;;;;5025601;28;20222;-75
2024/01/01 00:21:38;;;;;;;34.67;18.50;;;;;;;;;;4995898;28;20190;-74
2024/01/01 00:24:04;;;;;;;32.17;14.77;;;;;;;;;;5008029;28;20205;-74
2024/01/01 00:26:29;;;;;;;31.73;15.68;;;;;;;;;;5012869;28;20221;-74
2024/01/01 00:28:55;;;;;;;30.33;15.25;;;;;;;;;;5024415;28;20649;-74
2024/01/01 00:31:20;;;;;;;37.92;21.80;;;;;;;;;;4991619;28;20620;-73
2024/01/01 00:33:46;;;;;;;32.80;15.18;;;;;;;;;;5006927;28;20603;-75
2024/01/01 00:36:11;;;;;;;25.15;14.63;;;;;;;;;;5023566;28;20190;-76
2024/01/01 00:38:36;;;;;;;27.45;11.93;;;;;;;;;;5005690;28;20189;-74
2024/01/01 00:41:02;;;;;;;33.70;16.98;;;;;;;;;;5024674;28;20194;-75
2024/01/01 00:43:27;;;;;;;25.60;12.50;;;;;;;;;;5028796;28;20554;-74
2024/01/01 00:45:53;;;;;;;25.10;11.02;;;;;;;;;;5023008;28;20190;-74
2024/01/01 00:48:18;;;;;;;29.33;13.80;;;;;;;;;;5026404;28;20306;-74
2024/01/01 00:50:44;;;;;;;25.30;11.68;;;;;;;;;;5004222;28;20178;-74
2024/01/01 00:53:10;;;;;;;23.88;10.07;;;;;;;;;;5011017;28;20649;-76
2024/01/01 00:55:35;;;;;;;19.50;9.32;;;;;;;;;;5028296;28;20276;-77
2024/01/01 00:58:01;;;;;;;20.23;7.25;;;;;;;;;;4990100;28;20720;-75
2024/01/01 01:00:26;;;;;;;22.85;8.27;;;;;;;;;;5008723;28;20210;-76
2024/01/01 01:02:51;;;;;;;19.25;8.55;;;;;;;;;;5013364;28;20685;-76
2024/01/01 01:05:19;;;;;;;17.25;8.55;;;;;;;;;;5010720;28;20194;-75
2024/01/01 01:07:44;;;;;;;18.52;7.93;;;;;;;;;;5007205;28;20191;-75
2024/01/01 01:10:10;;;;;;;19.48;8.55;;;;;;;;;;5022288;28;20457;-75
2024/01/01 01:12:35;;;;;;;22.25;7.97;;;;;;;;;;5021686;28;20182;-75
2024/01/01 01:15:01;;;;;;;21.48;8.20;;;;;;;;;;5023685;28;20277;-74
2024/01/01 01:17:26;;;;;;;21.98;8.57;;;;;;;;;;5010480;28;20178;-75
2024/01/01 01:19:52;;;;;;;19.05;8.48;;;;;;;;;;5028488;28;20222;-75
2024/01/01 01:22:17;;;;;;;19.92;9.43;;;;;;;;;;5027770;28;20186;-75
2024/01/01 01:24:43;;;;;;;24.33;10.60;;;;;;;;;;5012071;28;20239;-75
2024/01/01 01:27:08;;;;;;;26.85;9.43;;;;;;;;;;5027532;28;20390;-75
2024/01/01 01:29:34;;;;;;;18.48;9.52;;;;;;;;;;5026103;28;20976;-75
2024/01/01 01:31:59;;;;;;;20.67;10.10;;;;;;;;;;5023675;28;20190;-75
2024/01/01 01:34:25;;;;;;;25.25;12.10;;;;;;;;;;5023462;28;20190;-75
2024/01/01 01:36:50;;;;;;;27.95;11.55;;;;;;;;;;5027510;28;20271;-74
2024/01/01 01:39:15;;;;;;;39.42;17.02;;;;;;;;;;5025924;28;20669;-75
2024/01/01 01:41:41;;;;;;;37.75;19.88;;;;;;;;;;5025135;28;20273;-75
2024/01/01 01:44:07;;;;;;;23.10;10.52;;;;;;;;;;5028167;28;20186;-74
2024/01/01 01:46:33;;;;;;;19.77;9.00;;;;;;;;;;5028024;28;20265;-75
2024/01/01 01:48:59;;;;;;;20.15;9.40;;;;;;;;;;5028820;28;20340;-74
2024/01/01 01:51:25;;;;;;;20.48;9.40;;;;;;;;;;5010282;28;20273;-74
2024/01/01 01:53:52;;;;;;;22.98;9.52;;;;;;;;;;5019925;28;20277;-74
2024/01/01 01:56:18;;;;;;;21.45;9.75;;;;;;;;;;5027600;28;20197;-74
2024/01/01 01:58:44;;;;;;;21.15;8.95;;;;;;;;;;5024531;28;20857;-75
2024/01/01 02:01:12;;;;;;;26.85;11.63;;;;;;;;;;5028961;28;20320;-74
2024/01/01 02:03:37;;;;;;;20.35;8.18;;;;;;;;;;5024717;28;20661;-74
2024/01/01 02:06:04;;;;;;;17.98;6.85;;;;;;;;;;5033003;28;20197;-76
2024/01/01 02:08:30;;;;;;;18.20;7.68;;;;;;;;;;5023103;28;20203;-75
2024/01/01 02:10:56;;;;;;;14.38;7.38;;;;;;;;;;5004783;28;20221;-75
2024/01/01 02:13:26;;;;;;;8.60;4.60;;;;;;;;;;5026884;28;20190;-77
2024/01/01 02:15:52;;;;;;;10.68;5.13;;;;;;;;;;5024169;28;20197;-77
2024/01/01 02:18:17;;;;;;;8.63;4.53;;;;;;;;;;5020263;28;20235;-76
2024/01/01 02:20:43;;;;;;;9.35;3.30;;;;;;;;;;5029869;28;20221;-75
2024/01/01 02:23:09;;;;;;;10.18;3.47;;;;;;;;;;5003612;28;20209;-75
2024/01/01 02:25:34;;;;;;;8.57;3.15;;;;;;;;;;5020508;28;20186;-75
2024/01/01 02:28:01;;;;;;;8.57;3.47;;;;;;;;;;5020544;28;20860;-75
2024/01/01 02:30:26;;;;;;;6.82;2.60;;;;;;;;;;5025445;28;20213;-75
2024/01/01 02:32:51;;;;;;;7.03;2.33;;;;;;;;;;5025911;28;20182;-75
2024/01/01 02:35:17;;;;;;;8.45;2.10;;;;;;;;;;5007275;28;20260;-74
2024/01/01 02:37:42;;;;;;;6.18;2.78;;;;;;;;;;5025235;28;20601;-74
2024/01/01 02:40:08;;;;;;;7.72;2.28;;;;;;;;;;5026419;28;20182;-74
2024/01/01 02:42:34;;;;;;;7.60;2.28;;;;;;;;;;5026347;28;20651;-74
2024/01/01 02:45:00;;;;;;;3.90;1.75;;;;;;;;;;4995713;28;20247;-76
2024/01/01 02:47:25;;;;;;;6.80;1.85;;;;;;;;;;5030451;28;20182;-74
2024/01/01 02:49:51;;;;;;;5.95;2.10;;;;;;;;;;5030073;28;20684;-74
2024/01/01 02:52:16;;;;;;;5.88;2.03;;;;;;;;;;5025036;28;20611;-74
2024/01/01 02:54:42;;;;;;;5.20;1.98;;;;;;;;;;5030275;28;20190;-75
2024/01/01 02:57:07;;;;;;;6.93;2.05;;;;;;;;;;5029668;28;20222;-75
2024/01/01 02:59:35;;;;;;;7.53;1.92;;;;;;;;;;5028136;28;20601;-74
2024/01/01 03:02:01;;;;;;;6.63;1.95;;;;;;;;;;5028577;28;20244;-74
2024/01/01 03:04:30;;;;;;;5.22;1.83;;;;;;;;;;5031097;28;20201;-74
2024/01/01 03:06:55;;;;;;;4.22;1.90;;;;;;;;;;5023494;28;20227;-74
2024/01/01 03:09:21;;;;;;;5.63;1.67;;;;;;;;;;5024090;28;20202;-74
2024/01/01 03:11:46;;;;;;;8.10;2.13;;;;;;;;;;5018567;28;20657;-74
2024/01/01 03:14:12;;;;;;;6.93;1.85;;;;;;;;;;5009318;28;20187;-77
2024/01/01 03:16:37;;;;;;;6.10;1.90;;;;;;;;;;5025777;28;20182;-75
2024/01/01 03:19:02;;;;;;;5.47;1.50;;;;;;;;;;5022576;28;20658;-74
2024/01/01 03:21:28;;;;;;;6.90;1.83;;;;;;;;;;5023975;28;20226;-74
2024/01/01 03:23:53;;;;;;;6.97;1.92;;;;;;;;;;5029551;28;20287;-75
2024/01/01 03:26:19;;;;;;;7.38;1.52;;;;;;;;;;5022367;28;20268;-76
2024/01/01 03:28:44;;;;;;;5.60;1.75;;;;;;;;;;5021857;28;20199;-74
2024/01/01 03:31:10;;;;;;;7.10;1.45;;;;;;;;;;5009943;28;20540;-74
2024/01/01 03:33:35;;;;;;;6.25;1.77;;;;;;;;;;5011180;28;20198;-75
2024/01/01 03:36:01;;;;;;;9.73;2.50;;;;;;;;;;5012469;28;20197;-74
2024/01/01 03:38:27;;;;;;;3.08;1.52;;;;;;;;;;5029601;28;20186;-74
2024/01/01 03:40:53;;;;;;;5.70;1.50;;;;;;;;;;5019265;28;20198;-74
2024/01/01 03:43:19;;;;;;;9.52;1.65;;;;;;;;;;5023733;28;20190;-74
2024/01/01 03:45:45;;;;;;;10.10;1.80;;;;;;;;;;5020353;28;20290;-74
2024/01/01 03:48:11;;;;;;;12.23;1.92;;;;;;;;;;5018661;28;20220;-74
2024/01/01 03:50:37;;;;;;;8.02;1.92;;;;;;;;;;5032187;28;20198;-74
2024/01/01 03:53:03;;;;;;;6.50;1.55;;;;;;;;;;5030687;28;20189;-74
2024/01/01 03:55:28;;;;;;;5.85;1.48;;;;;;;;;;5003786;28;20265;-74
2024/01/01 03:57:54;;;;;;;5.50;1.35;;;;;;;;;;5016945;28;20631;-73
2024/01/01 04:00:19;;;;;;;9.98;1.83;;;;;;;;;;5014468;28;20195;-74
2024/01/01 04:02:46;;;;;;;9.45;2.58;;;;;;;;;;5023334;28;20677;-74
2024/01/01 04:05:13;;;;;;;9.05;1.67;;;;;;;;;;5027063;28;20273;-74
2024/01/01 04:07:38;;;;;;;12.05;1.90;;;;;;;;;;5024608;28;20190;-75
2024/01/01 04:10:05;;;;;;;11.98;1.85;;;;;;;;;;5022016;28;20236;-78
2024/01/01 04:12:31;;;;;;;12.38;2.00;;;;;;;;;;5028870;28;20214;-74
2024/01/01 04:14:56;;;;;;;9.43;1.50;;;;;;;;;;5008997;28;20182;-74
2024/01/01 04:17:22;;;;;;;8.80;1.90;;;;;;;;;;5025810;28;20193;-74
2024/01/01 04:19:47;;;;;;;8.38;1.50;;;;;;;;;;5004333;28;20234;-74
2024/01/01 04:22:16;;;;;;;10.68;2.03;;;;;;;;;;5003143;28;20195;-74
2024/01/01 04:24:42;;;;;;;11.32;1.83;;;;;;;;;;5010395;28;20222;-75
2024/01/01 04:27:08;;;;;;;11.98;2.25;;;;;;;;;;5007981;28;20187;-75
2024/01/01 04:29:33;;;;;;;12.27;1.75;;;;;;;;;;5008615;28;20207;-74
2024/01/01 04:31:59;;;;;;;6.93;1.40;;;;;;;;;;5007135;28;20195;-74
2024/01/01 04:34:25;;;;;;;10.98;1.63;;;;;;;;;;5008642;28;20193;-75
2024/01/01 04:36:50;;;;;;;10.85;1.83;;;;;;;;;;5008932;28;20195;-75
2024/01/01 04:39:16;;;;;;;10.65;1.55;;;;;;;;;;5005625;28;20191;-75
2024/01/01 04:41:41;;;;;;;5.40;1.55;;;;;;;;;;5006401;28;20688;-73
2024/01/01 04:44:07;;;;;;;8.27;1.75;;;;;;;;;;5001800;28;20597;-76
2024/01/01 04:46:32;;;;;;;12.18;1.90;;;;;;;;;;5009388;28;20564;-74
2024/01/01 04:48:57;;;;;;;9.38;1.38;;;;;;;;;;5007914;28;20214;-75
2024/01/01 04:51:23;;;;;;;11.35;1.70;;;;;;;;;;5008744;28;20218;-74
2024/01/01 04:53:48;;;;;;;16.85;1.73;;;;;;;;;;5008308;28;20183;-75
2024/01/01 04:56:14;;;;;;;10.90;1.77;;;;;;;;;;5008133;28;20201;-74
2024/01/01 04:58:39;;;;;;;9.32;1.48;;;;;;;;;;5009460;28;20198;-74
2024/01/01 05:01:05;;;;;;;9.15;1.60;;;;;;;;;;4995955;28;20187;-76
2024/01/01 05:03:31;;;;;;;9.98;1.88;;;;;;;;;;4991332;28;20222;-74
2024/01/01 05:05:58;;;;;;;9.88;1.73;;;;;;;;;;5007112;28;20215;-74
2024/01/01 05:08:23;;;;;;;8.93;1.52;;;;;;;;;;5000738;28;20934;-74
2024/01/01 05:10:48;;;;;;;15.73;3.10;;;;;;;;;;5000978;28;20199;-74
2024/01/01 05:13:15;;;;;;;8.60;1.95;;;;;;;;;;5024869;28;20190;-74
2024/01/01 05:15:41;;;;;;;11.65;2.03;;;;;;;;;;4989980;28;20233;-74
2024/01/01 05:18:06;;;;;;;15.52;2.22;;;;;;;;;;5008243;28;20215;-74
2024/01/01 05:20:32;;;;;;;11.90;2.20;;;;;;;;;;5001750;28;20308;-73
2024/01/01 05:22:57;;;;;;;11.80;2.00;;;;;;;;;;5006873;28;20195;-73
2024/01/01 05:25:23;;;;;;;10.33;2.10;;;;;;;;;;5001418;28;20210;-73
2024/01/01 05:27:48;;;;;;;6.97;1.80;;;;;;;;;;5009457;28;20206;-74
2024/01/01 05:30:14;;;;;;;15.63;1.95;;;;;;;;;;4999821;28;20572;-73
2024/01/01 05:32:39;;;;;;;10.65;2.22;;;;;;;;;;5001477;28;20225;-73
2024/01/01 05:35:05;;;;;;;10.40;1.90;;;;;;;;;;5007719;28;20195;-73
2024/01/01 05:37:31;;;;;;;6.55;1.42;;;;;;;;;;5007386;28;20199;-73
2024/01/01 05:39:56;;;;;;;10.02;1.63;;;;;;;;;;4998529;28;20500;-74
2024/01/01 05:42:21;;;;;;;10.32;2.15;;;;;;;;;;5007750;28;20179;-73
2024/01/01 05:44:47;;;;;;;11.18;2.10;;;;;;;;;;4999251;28;20238;-73
2024/01/01 05:47:12;;;;;;;14.75;1.88;;;;;;;;;;5001231;28;20274;-74
2024/01/01 05:49:38;;;;;;;9.98;2.00;;;;;;;;;;5002362;28;20202;-74
2024/01/01 05:52:03;;;;;;;11.40;1.77;;;;;;;;;;5013474;28;20195;-76
2024/01/01 05:54:29;;;;;;;13.65;1.90;;;;;;;;;;5007611;28;20633;-74
2024/01/01 05:56:54;;;;;;;11.73;1.80;;;;;;;;;;5008146;28;20198;-74
2024/01/01 05:59:20;;;;;;;10.00;1.83;;;;;;;;;;5005717;28;20187;-73
2024/01/01 06:01:45;;;;;;;18.48;2.30;;;;;;;;;;5006478;28;20214;-74
2024/01/01 06:04:11;;;;;;;11.30;2.05;;;;;;;;;;5006081;28;20281;-74
2024/01/01 06:06:36;;;;;;;5.90;1.70;;;;;;;;;;4993265;28;20205;-74
2024/01/01 06:09:02;;;;;;;15.52;2.28;;;;;;;;;;4998724;28;20209;-73
2024/01/01 06:11:28;;;;;;;14.18;1.70;;;;;;;;;;5005812;28;20677;-73
2024/01/01 06:13:53;;;;;;;11.40;1.65;;;;;;;;;;5009161;28;20179;-73
2024/01/01 06:16:18;;;;;;;12.60;1.85;;;;;;;;;;5007777;28;20182;-73
2024/01/01 06:18:44;;;;;;;9.75;1.85;;;;;;;;;;5004326;28;20218;-72
2024/01/01 06:21:10;;;;;;;10.87;1.73;;;;;;;;;;5021357;28;20209;-74
2024/01/01 06:23:35;;;;;;;12.13;2.00;;;;;;;;;;5019202;28;20198;-74
2024/01/01 06:26:01;;;;;;;9.37;2.67;;;;;;;;;;5010703;28;20674;-74
2024/01/01 06:28:26;;;;;;;8.77;1.65;;;;;;;;;;5018131;28;20201;-73
2024/01/01 06:30:52;;;;;;;8.88;1.67;;;;;;;;;;5017869;28;20708;-73
2024/01/01 06:33:18;;;;;;;8.48;1.67;;;;;;;;;;5025363;28;20228;-73
2024/01/01 06:35:43;;;;;;;11.73;1.70;;;;;;;;;;5023136;28;20186;-75
2024/01/01 06:38:09;;;;;;;12.20;1.55;;;;;;;;;;5023769;28;20182;-74
2024/01/01 06:40:34;;;;;;;9.05;1.50;;;;;;;;;;4983029;28;20628;-73
2024/01/01 06:42:59;;;;;;;11.55;2.17;;;;;;;;;;5017105;28;20638;-74
2024/01/01 06:45:25;;;;;;;13.23;1.70;;;;;;;;;;5022277;28;20182;-74
2024/01/01 06:47:50;;;;;;;9.27;1.38;;;;;;;;;;5010147;28;20186;-74
2024/01/01 06:50:16;;;;;;;10.43;2.17;;;;;;;;;;5027029;28;20216;-73
2024/01/01 06:52:41;;;;;;;8.50;1.65;;;;;;;;;;5027375;28;20333;-74
2024/01/01 06:55:07;;;;;;;8.38;1.65;;;;;;;;;;5027886;28;20189;-75
2024/01/01 06:57:33;;;;;;;14.43;2.15;;;;;;;;;;5027611;28;20186;-74
2024/01/01 06:59:58;;;;;;;7.60;1.50;;;;;;;;;;5026448;28;20692;-74
2024/01/01 07:02:25;;;;;;;8.25;1.55;;;;;;;;;;5009330;28;20692;-76
2024/01/01 07:04:51;;;;;;;9.98;1.85;;;;;;;;;;5004947;28;20241;-74
2024/01/01 07:07:17;;;;;;;7.57;1.67;;;;;;;;;;5026170;28;20186;-75
2024/01/01 07:09:42;;;;;;;9.17;1.63;;;;;;;;;;5026166;28;20218;-75
2024/01/01 07:12:19;;;;;;;12.45;2.42;;;;;;;;;;5026934;28;20187;-74
2024/01/01 07:14:47;;;;;;;9.43;1.67;;;;;;;;;;5008558;28;20212;-74
2024/01/01 07:17:12;;;;;;;12.15;2.10;;;;;;;;;;5009266;28;20205;-74
2024/01/01 07:19:38;;;;;;;6.95;1.52;;;;;;;;;;5027141;28;20248;-74
2024/01/01 07:22:04;;;;;;;10.27;2.27;;;;;;;;;;5025326;28;20206;-75
2024/01/01 07:24:30;;;;;;;8.85;1.83;;;;;;;;;;5026532;28;20198;-74
2024/01/01 07:26:56;;;;;;;13.15;2.80;;;;;;;;;;5026644;28;20190;-74
2024/01/01 07:29:21;;;;;;;11.48;2.03;;;;;;;;;;5023242;28;20194;-74
2024/01/01 07:31:47;;;;;;;13.55;2.08;;;;;;;;;;5036229;28;20556;-74
2024/01/01 07:34:15;;;;;;;15.15;2.00;;;;;;;;;;5030295;28;20252;-73
2024/01/01 07:36:42;;;;;;;17.77;2.25;;;;;;;;;;5029162;28;20186;-73
2024/01/01 07:39:07;;;;;;;9.93;1.98;;;;;;;;;;5013007;28;20181;-74
2024/01/01 07:41:33;;;;;;;12.10;1.80;;;;;;;;;;5030706;28;20540;-74
2024/01/01 07:43:58;;;;;;;8.87;2.10;;;;;;;;;;5010268;28;20190;-74
2024/01/01 07:46:24;;;;;;;12.13;2.05;;;;;;;;;;5012049;28;20182;-73
2024/01/01 07:48:49;;;;;;;9.40;2.13;;;;;;;;;;5011527;28;20296;-73
2024/01/01 07:51:14;;;;;;;13.70;1.93;;;;;;;;;;5030721;28;20196;-73
2024/01/01 07:53:42;;;;;;;12.25;1.90;;;;;;;;;;5026333;28;20563;-73
2024/01/01 07:56:08;;;;;;;14.15;2.80;;;;;;;;;;5027256;28;20224;-72
2024/01/01 07:58:33;;;;;;;6.68;1.63;;;;;;;;;;5028299;28;20178;-74
2024/01/01 08:00:59;;;;;;;9.50;2.22;;;;;;;;;;5027434;28;20559;-74
2024/01/01 08:03:25;;;;;;;10.38;2.25;;;;;;;;;;5006889;28;20193;-73
2024/01/01 08:05:51;;;;;;;10.80;2.70;;;;;;;;;;5021840;28;20186;-74
2024/01/01 08:08:16;;;;;;;9.50;1.95;;;;;;;;;;5025163;28;20201;-73
2024/01/01 08:10:43;;;;;;;12.10;2.00;;;;;;;;;;5027390;28;20656;-75
2024/01/01 08:13:08;;;;;;;10.05;1.85;;;;;;;;;;5023483;28;20190;-73
2024/01/01 08:15:34;;;;;;;11.20;2.60;;;;;;;;;;5027225;28;20199;-73
2024/01/01 08:18:00;;;;;;;10.23;2.22;;;;;;;;;;5028710;28;20202;-76
2024/01/01 08:20:25;;;;;;;8.32;1.77;;;;;;;;;;5004222;28;20211;-73
2024/01/01 08:22:50;;;;;;;8.57;1.95;;;;;;;;;;5006206;28;20218;-74
2024/01/01 08:25:16;;;;;;;11.15;2.10;;;;;;;;;;5005888;28;20567;-75
2024/01/01 08:27:41;;;;;;;9.43;1.92;;;;;;;;;;5008999;28;20198;-75
2024/01/01 08:30:07;;;;;;;9.55;1.85;;;;;;;;;;5005419;28;20238;-75
2024/01/01 08:32:33;;;;;;;15.45;2.40;;;;;;;;;;5009373;28;20927;-75
2024/01/01 08:34:59;;;;;;;10.63;2.03;;;;;;;;;;4999529;28;20190;-74
2024/01/01 08:37:24;;;;;;;6.88;2.03;;;;;;;;;;5007168;28;20678;-76
2024/01/01 08:39:49;;;;;;;12.45;2.33;;;;;;;;;;5007714;28;20560;-74
2024/01/01 08:42:15;;;;;;;10.35;2.40;;;;;;;;;;4990980;28;20222;-74
2024/01/01 08:44:40;;;;;;;12.40;2.87;;;;;;;;;;5004830;28;20697;-74
2024/01/01 08:47:06;;;;;;;17.38;2.53;;;;;;;;;;5002889;28;20208;-74
2024/01/01 08:49:31;;;;;;;11.13;2.47;;;;;;;;;;5010773;28;20293;-74
2024/01/01 08:51:57;;;;;;;10.73;2.45;;;;;;;;;;5008595;28;20218;-74
2024/01/01 08:54:22;;;;;;;12.85;3.05;;;;;;;;;;5008831;28;20245;-74
2024/01/01 08:56:48;;;;;;;9.57;2.35;;;;;;;;;;5009767;28;20210;-75
2024/01/01 08:59:15;;;;;;;9.13;1.90;;;;;;;;;;5007389;28;20685;-74
2024/01/01 09:01:45;;;;;;;9.15;2.10;;;;;;;;;;4999852;28;20278;-74
2024/01/01 09:04:11;;;;;;;13.95;2.92;;;;;;;;;;5005380;28;20535;-74
2024/01/01 09:06:37;;;;;;;9.02;2.50;;;;;;;;;;4991085;28;20191;-75
2024/01/01 09:09:02;;;;;;;12.30;2.15;;;;;;;;;;5018758;28;20264;-76
2024/01/01 09:11:28;;;;;;;8.52;2.25;;;;;;;;;;5009520;28;20647;-75
2024/01/01 09:13:53;;;;;;;7.03;2.20;;;;;;;;;;5001127;28;20273;-74
2024/01/01 09:16:19;;;;;;;13.68;2.97;;;;;;;;;;5003738;28;20196;-74
2024/01/01 09:18:44;;;;;;;11.65;2.67;;;;;;;;;;5005528;28;20202;-75
2024/01/01 09:21:16;;;;;;;7.43;2.25;;;;;;;;;;5004607;28;20735;-74
2024/01/01 09:23:41;;;;;;;8.85;2.10;;;;;;;;;;5007548;28;20226;-75
2024/01/01 09:26:07;;;;;;;10.40;2.63;;;;;;;;;;5008578;28;20612;-74
2024/01/01 09:28:33;;;;;;;7.45;2.00;;;;;;;;;;5012711;28;20187;-74
2024/01/01 09:30:59;;;;;;;11.75;2.60;;;;;;;;;;5006833;28;20194;-75
2024/01/01 09:33:25;;;;;;;8.63;1.88;;;;;;;;;;5002385;28;20272;-74
2024/01/01 09:35:55;;;;;;;8.65;1.90;;;;;;;;;;5006187;28;20202;-74
2024/01/01 09:38:20;;;;;;;12.60;2.13;;;;;;;;;;5002781;28;20654;-75
2024/01/01 09:40:46;;;;;;;15.13;2.65;;;;;;;;;;5005155;28;20255;-76
2024/01/01 09:43:17;;;;;;;12.77;2.15;;;;;;;;;;5008965;28;20248;-74
2024/01/01 09:45:46;;;;;;;10.82;2.45;;;;;;;;;;4991530;28;20607;-74
2024/01/01 09:48:11;;;;;;;9.90;2.33;;;;;;;;;;5003605;28;20198;-74
2024/01/01 09:50:37;;;;;;;7.43;2.45;;;;;;;;;;5001559;28;20217;-75
2024/01/01 09:53:02;;;;;;;6.78;2.00;;;;;;;;;;5006531;28;20240;-74
2024/01/01 09:55:29;;;;;;;7.93;2.72;;;;;;;;;;5018883;28;20219;-75
2024/01/01 09:57:55;;;;;;;9.82;2.45;;;;;;;;;;5006814;28;20634;-74
2024/01/01 10:00:22;;;;;;;8.20;1.95;;;;;;;;;;5007933;28;20197;-75
2024/01/01 10:02:48;;;;;;;10.98;2.85;;;;;;;;;;5008224;28;20191;-74
2024/01/01 10:05:15;;;;;;;8.52;2.40;;;;;;;;;;5008223;28;20194;-74
2024/01/01 10:07:40;;;;;;;10.93;2.70;;;;;;;;;;5007200;28;20191;-75
2024/01/01 10:10:07;;;;;;;12.50;3.20;;;;;;;;;;5007280;28;20232;-75
2024/01/01 10:12:33;;;;;;;12.75;2.70;;;;;;;;;;5006228;28;20190;-74
2024/01/01 10:14:59;;;;;;;10.25;2.08;;;;;;;;;;5007794;28;20187;-75
2024/01/01 10:17:24;;;;;;;9.85;2.35;;;;;;;;;;4998456;28;20209;-74
2024/01/01 10:19:55;;;;;;;9.48;2.55;;;;;;;;;;5010558;28;20586;-74
2024/01/01 10:22:23;;;;;;;9.70;2.20;;;;;;;;;;5005595;28;20199;-75
2024/01/01 10:24:52;;;;;;;12.88;2.60;;;;;;;;;;5000429;28;20269;-75
2024/01/01 10:27:19;;;;;;;8.30;2.03;;;;;;;;;;5016254;28;20438;-74
2024/01/01 10:29:48;;;;;;;8.98;2.15;;;;;;;;;;5000827;28;20207;-74
2024/01/01 10:32:18;;;;;;;8.35;2.08;;;;;;;;;;5011799;28;20267;-75
2024/01/01 10:34:46;;;;;;;8.43;2.03;;;;;;;;;;5022713;28;20225;-74
2024/01/01 10:37:18;;;;;;;7.47;1.77;;;;;;;;;;5007148;28;20577;-74
2024/01/01 10:39:44;;;;;;;8.43;1.45;;;;;;;;;;5015135;28;20186;-73
2024/01/01 10:42:10;;;;;;;9.45;2.25;;;;;;;;;;5004392;28;20194;-73
2024/01/01 10:44:36;;;;;;;9.70;2.42;;;;;;;;;;4997528;28;20537;-75
2024/01/01 10:47:07;;;;;;;10.18;2.50;;;;;;;;;;5003772;28;20237;-74
2024/01/01 10:49:33;;;;;;;7.32;2.17;;;;;;;;;;5009461;28;20210;-75
2024/01/01 10:52:23;;;;;;;8.40;2.33;;;;;;;;;;5010161;28;20227;-75
2024/01/01 10:55:20;;;;;;;8.13;2.05;;;;;;;;;;5006729;28;20309;-75
2024/01/01 10:58:11;;;;;;;7.88;2.22;;;;;;;;;;5012733;28;20198;-74
2024/01/01 11:00:41;;;;;;;8.18;1.90;;;;;;;;;;5012814;28;20205;-74
2024/01/01 11:03:12;;;;;;;9.30;1.92;;;;;;;;;;4992534;28;20202;-74
2024/01/01 11:05:37;;;;;;;6.05;1.73;;;;;;;;;;5008757;28;20194;-75
2024/01/01 11:08:03;;;;;;;7.60;2.10;;;;;;;;;;5009748;28;20521;-74
2024/01/01 11:10:42;;;;;;;7.30;2.28;;;;;;;;;;5006398;28;20202;-74
2024/01/01 11:13:26;;;;;;;11.07;2.00;;;;;;;;;;5023143;28;20207;-74
2024/01/01 11:15:58;;;;;;;6.88;1.58;;;;;;;;;;5002039;28;20536;-74
2024/01/01 11:18:31;;;;;;;5.07;1.73;;;;;;;;;;5019454;28;20245;-74
2024/01/01 11:20:57;;;;;;;10.23;2.33;;;;;;;;;;5005961;28;20225;-74
2024/01/01 11:23:44;;;;;;;5.47;1.58;;;;;;;;;;5016209;28;20203;-74
2024/01/01 11:26:31;;;;;;;7.93;1.80;;;;;;;;;;5005589;28;20190;-73
2024/01/01 11:29:01;;;;;;;7.43;2.47;;;;;;;;;;5007581;28;20214;-74
2024/01/01 11:31:28;;;;;;;8.30;2.70;;;;;;;;;;5006098;28;20195;-74
2024/01/01 11:34:05;;;;;;;10.65;2.10;;;;;;;;;;5019887;28;20290;-74
2024/01/01 11:36:31;;;;;;;7.72;2.42;;;;;;;;;;5008386;28;20252;-74
2024/01/01 11:38:57;;;;;;;13.20;2.78;;;;;;;;;;5009530;28;20178;-74
2024/01/01 11:41:24;;;;;;;7.97;2.20;;;;;;;;;;5011354;28;20483;-74
2024/01/01 11:43:50;;;;;;;12.13;2.50;;;;;;;;;;5010362;28;20738;-73
2024/01/01 11:46:28;;;;;;;5.95;1.38;;;;;;;;;;5008953;28;20273;-74
2024/01/01 11:48:58;;;;;;;7.10;1.50;;;;;;;;;;5003013;28;20658;-74
2024/01/01 11:51:24;;;;;;;9.90;1.83;;;;;;;;;;5008118;28;20199;-74
2024/01/01 11:54:07;;;;;;;10.88;2.30;;;;;;;;;;5001630;28;20717;-74
2024/01/01 11:56:33;;;;;;;6.78;2.75;;;;;;;;;;5008422;28;20194;-74
2024/01/01 11:58:59;;;;;;;5.82;2.00;;;;;;;;;;5009017;28;20269;-73
2024/01/01 12:01:25;;;;;;;3.95;1.30;;;;;;;;;;5006620;28;20269;-74
2024/01/01 12:03:51;;;;;;;7.93;1.45;;;;;;;;;;5004749;28;20186;-73
2024/01/01 12:06:17;;;;;;;6.00;1.67;;;;;;;;;;5007980;28;20190;-75
2024/01/01 12:08:42;;;;;;;7.75;1.80;;;;;;;;;;4990291;28;20219;-73
2024/01/01 12:11:08;;;;;;;5.28;2.10;;;;;;;;;;5005110;28;20218;-73
2024/01/01 12:13:33;;;;;;;6.88;1.90;;;;;;;;;;5011399;28;20236;-74
2024/01/01 12:16:16;;;;;;;4.10;2.00;;;;;;;;;;5006511;28;20225;-74
2024/01/01 12:18:41;;;;;;;12.15;2.83;;;;;;;;;;4995572;28;20226;-74
2024/01/01 12:21:07;;;;;;;12.73;2.85;;;;;;;;;;5025362;28;20223;-74
2024/01/01 12:23:32;;;;;;;7.28;2.35;;;;;;;;;;5022462;28;20681;-74
2024/01/01 12:26:05;;;;;;;7.32;1.83;;;;;;;;;;5030354;28;20293;-73
2024/01/01 12:28:30;;;;;;;6.60;2.45;;;;;;;;;;4318378;28;10000758;-74
2024/01/01 12:30:59;;;;;;;9.13;2.20;;;;;;;;;;5019256;28;20679;-74
2024/01/01 12:33:24;;;;;;;9.10;2.03;;;;;;;;;;5008047;28;20687;-74
2024/01/01 12:35:49;;;;;;;6.03;1.80;;;;;;;;;;5024723;28;20224;-74
2024/01/01 12:38:15;;;;;;;4.90;1.48;;;;;;;;;;5015483;28;20269;-74
2024/01/01 12:40:41;;;;;;;9.70;2.05;;;;;;;;;;5025708;28;20190;-74
2024/01/01 12:43:07;;;;;;;9.20;2.17;;;;;;;;;;5005316;28;20215;-74
2024/01/01 12:45:32;;;;;;;10.57;2.03;;;;;;;;;;5017047;28;20229;-74
2024/01/01 12:47:59;;;;;;;6.80;1.50;;;;;;;;;;5015930;28;20194;-73
2024/01/01 12:50:24;;;;;;;8.60;1.60;;;;;;;;;;5028845;28;20202;-74
2024/01/01 12:52:49;;;;;;;8.55;2.55;;;;;;;;;;5007152;28;20206;-74
2024/01/01 12:55:15;;;;;;;8.73;2.60;;;;;;;;;;5010239;28;20286;-73
2024/01/01 12:57:40;;;;;;;5.82;2.25;;;;;;;;;;5029958;28;20201;-73
2024/01/01 13:00:07;;;;;;;11.00;2.83;;;;;;;;;;5022668;28;20179;-73
2024/01/01 13:02:32;;;;;;;12.68;3.42;;;;;;;;;;5024422;28;20247;-72
2024/01/01 13:04:58;;;;;;;7.95;2.58;;;;;;;;;;5028967;28;20634;-74
2024/01/01 13:07:23;;;;;;;10.68;2.58;;;;;;;;;;4998058;28;20182;-74
2024/01/01 13:09:49;;;;;;;10.43;3.00;;;;;;;;;;5016663;28;20210;-74
2024/01/01 13:12:14;;;;;;;9.32;2.38;;;;;;;;;;5024632;28;20224;-75
2024/01/01 13:14:40;;;;;;;10.52;3.53;;;;;;;;;;5004548;28;20204;-74
2024/01/01 13:17:05;;;;;;;20.73;11.07;;;;;;;;;;5025866;28;20232;-74
2024/01/01 13:19:34;;;;;;;14.63;4.30;;;;;;;;;;5008638;28;20222;-72
2024/01/01 13:22:00;;;;;;;9.43;2.75;;;;;;;;;;4992584;28;20266;-74
2024/01/01 13:24:25;;;;;;;12.73;3.22;;;;;;;;;;5027780;28;20186;-74
2024/01/01 13:26:51;;;;;;;11.25;3.13;;;;;;;;;;5025406;28;20189;-73
2024/01/01 13:29:16;;;;;;;17.25;3.80;;;;;;;;;;5020466;28;20214;-73
2024/01/01 13:31:42;;;;;;;7.00;3.13;;;;;;;;;;5016163;28;20526;-74
2024/01/01 13:34:07;;;;;;;12.07;3.88;;;;;;;;;;5024346;28;20200;-73
2024/01/01 13:36:33;;;;;;;9.90;3.10;;;;;;;;;;5007772;28;20199;-74
2024/01/01 13:38:59;;;;;;;10.75;3.85;;;;;;;;;;5019390;28;20186;-74
2024/01/01 13:41:24;;;;;;;7.20;2.35;;;;;;;;;;5020085;28;20420;-74
2024/01/01 13:43:49;;;;;;;11.10;2.17;;;;;;;;;;5022085;28;20882;-74
2024/01/01 13:46:15;;;;;;;13.23;2.83;;;;;;;;;;5027157;28;20199;-74
2024/01/01 13:48:42;;;;;;;11.88;3.40;;;;;;;;;;5023052;28;20523;-74
2024/01/01 13:51:08;;;;;;;4.75;2.30;;;;;;;;;;5021828;28;20542;-74
2024/01/01 13:53:33;;;;;;;6.78;2.25;;;;;;;;;;5018519;28;20190;-74
2024/01/01 13:55:58;;;;;;;6.75;1.92;;;;;;;;;;5004469;28;20190;-74
2024/01/01 13:58:24;;;;;;;17.67;8.18;;;;;;;;;;5022930;28;20194;-74
2024/01/01 14:00:49;;;;;;;12.52;3.40;;;;;;;;;;5012163;28;20702;-74
2024/01/01 14:03:16;;;;;;;7.07;1.20;;;;;;;;;;5031772;28;20271;-73
2024/01/01 14:05:42;;;;;;;3.95;1.50;;;;;;;;;;5007703;28;20209;-74
2024/01/01 14:08:08;;;;;;;7.60;2.40;;;;;;;;;;5021483;28;20186;-74
2024/01/01 14:10:33;;;;;;;7.00;1.30;;;;;;;;;;5025688;28;20216;-74
2024/01/01 14:12:59;;;;;;;6.38;1.45;;;;;;;;;;5024202;28;20371;-74
2024/01/01 14:15:26;;;;;;;9.02;1.40;;;;;;;;;;5023092;28;20325;-77
2024/01/01 14:17:52;;;;;;;7.18;1.60;;;;;;;;;;5007272;28;20281;-78
2024/01/01 14:20:18;;;;;;;6.13;1.20;;;;;;;;;;5007773;28;20725;-77
2024/01/01 14:22:45;;;;;;;9.18;1.50;;;;;;;;;;5017643;28;20187;-76
2024/01/01 14:25:10;;;;;;;8.95;2.45;;;;;;;;;;5014125;28;20315;-76
2024/01/01 14:27:36;;;;;;;6.85;1.70;;;;;;;;;;5020561;28;20427;-76
2024/01/01 14:30:01;;;;;;;10.63;2.10;;;;;;;;;;5008792;28;20217;-77
2024/01/01 14:32:28;;;;;;;8.73;2.10;;;;;;;;;;5007692;28;20201;-76